sensor_id;sensor_type;location;lat;lon;timestamp;temperature;humidity
7970;DHT22;4030;52.362;9.206;2023-05-10T00:01:47;19.30;54.60
7970;DHT22;4030;52.362;9.206;2023-05-10T00:04:13;19.30;55.30
7970;DHT22;4030;52.362;9.206;2023-05-10T00:06:38;19.30;54.60
7970;DHT22;4030;52.362;9.206;2023-05-10T00:09:04;19.20;54.70
7970;DHT22;4030;52.362;9.206;2023-05-10T00:11:30;19.30;54.90
7970;DHT22;4030;52.362;9.206;2023-05-10T00:13:56;19.20;54.80
7970;DHT22;4030;52.362;9.206;2023-05-10T00:16:22;19.20;55.00
7970;DHT22;4030;52.362;9.206;2023-05-10T00:18:47;19.20;55.00
7970;DHT22;4030;52.362;9.206;2023-05-10T00:21:13;19.20;55.10
7970;DHT22;4030;52.362;9.206;2023-05-10T00:23:38;19.10;55.10
7970;DHT22;4030;52.362;9.206;2023-05-10T00:26:04;19.10;55.20
7970;DHT22;4030;52.362;9.206;2023-05-10T00:28:30;19.10;55.20
7970;DHT22;4030;52.362;9.206;2023-05-10T00:30:55;19.10;55.30
7970;DHT22;4030;52.362;9.206;2023-05-10T00:33:21;19.00;55.20
7970;DHT22;4030;52.362;9.206;2023-05-10T00:35:47;19.00;55.30
7970;DHT22;4030;52.362;9.206;2023-05-10T00:38:12;19.00;55.40
7970;DHT22;4030;52.362;9.206;2023-05-10T00:40:38;19.00;55.50
7970;DHT22;4030;52.362;9.206;2023-05-10T00:43:04;19.00;55.50
7970;DHT22;4030;52.362;9.206;2023-05-10T00:45:31;18.90;55.50
7970;DHT22;4030;52.362;9.206;2023-05-10T00:47:59;18.90;55.60
7970;DHT22;4030;52.362;9.206;2023-05-10T00:50:26;18.90;55.70
7970;DHT22;4030;52.362;9.206;2023-05-10T00:52:52;18.90;55.60
7970;DHT22;4030;52.362;9.206;2023-05-10T00:55:18;18.90;55.70
7970;DHT22;4030;52.362;9.206;2023-05-10T00:57:44;18.90;55.70
7970;DHT22;4030;52.362;9.206;2023-05-10T01:00:10;18.90;55.70
7970;DHT22;4030;52.362;9.206;2023-05-10T01:02:37;18.80;55.60
7970;DHT22;4030;52.362;9.206;2023-05-10T01:05:03;18.80;55.70
7970;DHT22;4030;52.362;9.206;2023-05-10T01:07:29;18.80;55.70
7970;DHT22;4030;52.362;9.206;2023-05-10T01:09:55;18.80;55.70
7970;DHT22;4030;52.362;9.206;2023-05-10T01:12:22;18.70;55.70
7970;DHT22;4030;52.362;9.206;2023-05-10T01:14:48;18.70;55.60
7970;DHT22;4030;52.362;9.206;2023-05-10T01:17:14;18.70;55.70
7970;DHT22;4030;52.362;9.206;2023-05-10T01:19:40;18.70;55.70
7970;DHT22;4030;52.362;9.206;2023-05-10T01:25:55;20.90;57.60
7970;DHT22;4030;52.362;9.206;2023-05-10T01:28:58;18.70;56.00
7970;DHT22;4030;52.362;9.206;2023-05-10T01:35:02;18.60;56.10
7970;DHT22;4030;52.362;9.206;2023-05-10T01:37:38;18.60;56.30
7970;DHT22;4030;52.362;9.206;2023-05-10T01:40:19;18.60;56.40
7970;DHT22;4030;52.362;9.206;2023-05-10T01:42:54;18.60;56.60
7970;DHT22;4030;52.362;9.206;2023-05-10T01:45:33;18.60;56.70
7970;DHT22;4030;52.362;9.206;2023-05-10T01:48:08;18.50;56.80
7970;DHT22;4030;52.362;9.206;2023-05-10T01:50:38;18.50;57.60
7970;DHT22;4030;52.362;9.206;2023-05-10T01:53:10;18.50;57.00
7970;DHT22;4030;52.362;9.206;2023-05-10T01:55:47;18.50;56.60
7970;DHT22;4030;52.362;9.206;2023-05-10T01:58:21;18.50;57.20
7970;DHT22;4030;52.362;9.206;2023-05-10T02:00:50;18.50;56.90
7970;DHT22;4030;52.362;9.206;2023-05-10T02:03:18;18.40;57.40
7970;DHT22;4030;52.362;9.206;2023-05-10T02:05:48;18.50;57.60
7970;DHT22;4030;52.362;9.206;2023-05-10T02:08:14;18.40;57.20
7970;DHT22;4030;52.362;9.206;2023-05-10T02:10:42;18.40;57.30
7970;DHT22;4030;52.362;9.206;2023-05-10T02:13:10;18.40;57.40
7970;DHT22;4030;52.362;9.206;2023-05-10T02:15:37;18.40;57.60
7970;DHT22;4030;52.362;9.206;2023-05-10T02:18:04;18.30;57.50
7970;DHT22;4030;52.362;9.206;2023-05-10T02:20:31;18.30;57.70
7970;DHT22;4030;52.362;9.206;2023-05-10T02:22:58;18.30;57.70
7970;DHT22;4030;52.362;9.206;2023-05-10T02:25:25;18.30;58.30
7970;DHT22;4030;52.362;9.206;2023-05-10T02:27:55;18.20;57.90
7970;DHT22;4030;52.362;9.206;2023-05-10T02:30:22;18.20;57.80
7970;DHT22;4030;52.362;9.206;2023-05-10T02:32:49;18.30;58.00
7970;DHT22;4030;52.362;9.206;2023-05-10T02:35:15;18.20;58.00
7970;DHT22;4030;52.362;9.206;2023-05-10T02:37:42;18.20;58.00
7970;DHT22;4030;52.362;9.206;2023-05-10T02:40:10;18.20;58.00
7970;DHT22;4030;52.362;9.206;2023-05-10T02:42:37;18.10;58.00
7970;DHT22;4030;52.362;9.206;2023-05-10T02:45:10;18.10;58.10
7970;DHT22;4030;52.362;9.206;2023-05-10T02:47:37;18.10;58.20
7970;DHT22;4030;52.362;9.206;2023-05-10T02:50:03;18.10;58.30
7970;DHT22;4030;52.362;9.206;2023-05-10T02:52:38;18.10;58.40
7970;DHT22;4030;52.362;9.206;2023-05-10T02:55:09;18.10;58.40
7970;DHT22;4030;52.362;9.206;2023-05-10T02:57:43;18.00;58.50
7970;DHT22;4030;52.362;9.206;2023-05-10T03:00:12;18.00;58.50
7970;DHT22;4030;52.362;9.206;2023-05-10T03:02:37;18.00;58.60
7970;DHT22;4030;52.362;9.206;2023-05-10T03:05:03;18.00;58.70
7970;DHT22;4030;52.362;9.206;2023-05-10T03:07:29;18.00;58.70
7970;DHT22;4030;52.362;9.206;2023-05-10T03:09:55;18.00;58.80
7970;DHT22;4030;52.362;9.206;2023-05-10T03:12:44;18.00;59.00
7970;DHT22;4030;52.362;9.206;2023-05-10T03:15:47;17.90;59.00
7970;DHT22;4030;52.362;9.206;2023-05-10T03:18:33;17.90;59.10
7970;DHT22;4030;52.362;9.206;2023-05-10T03:21:03;17.90;59.30
7970;DHT22;4030;52.362;9.206;2023-05-10T03:23:53;17.90;59.50
7970;DHT22;4030;52.362;9.206;2023-05-10T03:26:26;17.90;59.60
7970;DHT22;4030;52.362;9.206;2023-05-10T03:28:53;17.90;59.70
7970;DHT22;4030;52.362;9.206;2023-05-10T03:31:19;17.90;59.70
7970;DHT22;4030;52.362;9.206;2023-05-10T03:33:52;17.90;59.90
7970;DHT22;4030;52.362;9.206;2023-05-10T03:36:18;17.80;59.80
7970;DHT22;4030;52.362;9.206;2023-05-10T03:38:44;17.80;59.80
7970;DHT22;4030;52.362;9.206;2023-05-10T03:46:03;17.80;60.00
7970;DHT22;4030;52.362;9.206;2023-05-10T03:48:29;17.80;60.10
7970;DHT22;4030;52.362;9.206;2023-05-10T03:50:55;17.70;60.10
7970;DHT22;4030;52.362;9.206;2023-05-10T03:55:48;17.70;60.20
7970;DHT22;4030;52.362;9.206;2023-05-10T03:58:14;17.70;60.40
7970;DHT22;4030;52.362;9.206;2023-05-10T04:00:40;17.80;60.60
7970;DHT22;4030;52.362;9.206;2023-05-10T04:03:09;17.70;60.50
7970;DHT22;4030;52.362;9.206;2023-05-10T04:05:35;17.70;60.80
7970;DHT22;4030;52.362;9.206;2023-05-10T04:08:02;17.70;60.70
7970;DHT22;4030;52.362;9.206;2023-05-10T04:10:28;17.70;61.20
7970;DHT22;4030;52.362;9.206;2023-05-10T04:12:53;17.60;61.00
7970;DHT22;4030;52.362;9.206;2023-05-10T04:15:19;17.60;61.20
7970;DHT22;4030;52.362;9.206;2023-05-10T04:17:45;17.60;61.40
7970;DHT22;4030;52.362;9.206;2023-05-10T04:20:11;17.60;61.60
7970;DHT22;4030;52.362;9.206;2023-05-10T04:22:37;17.60;61.60
7970;DHT22;4030;52.362;9.206;2023-05-10T04:25:03;17.50;61.70
7970;DHT22;4030;52.362;9.206;2023-05-10T04:29:56;17.40;61.90
7970;DHT22;4030;52.362;9.206;2023-05-10T04:32:22;17.50;62.20
7970;DHT22;4030;52.362;9.206;2023-05-10T04:34:48;17.50;62.30
7970;DHT22;4030;52.362;9.206;2023-05-10T04:37:14;17.50;62.50
7970;DHT22;4030;52.362;9.206;2023-05-10T04:44:32;17.50;63.00
7970;DHT22;4030;52.362;9.206;2023-05-10T04:49:24;17.50;63.40
7970;DHT22;4030;52.362;9.206;2023-05-10T04:51:49;17.50;63.60
7970;DHT22;4030;52.362;9.206;2023-05-10T04:54:15;17.40;63.60
7970;DHT22;4030;52.362;9.206;2023-05-10T04:56:41;17.50;64.20
7970;DHT22;4030;52.362;9.206;2023-05-10T04:59:07;17.50;64.40
7970;DHT22;4030;52.362;9.206;2023-05-10T05:01:33;17.40;64.40
7970;DHT22;4030;52.362;9.206;2023-05-10T05:03:58;17.40;64.80
7970;DHT22;4030;52.362;9.206;2023-05-10T05:06:24;17.50;65.00
7970;DHT22;4030;52.362;9.206;2023-05-10T05:08:51;17.50;65.30
7970;DHT22;4030;52.362;9.206;2023-05-10T05:11:17;17.50;65.40
7970;DHT22;4030;52.362;9.206;2023-05-10T05:13:43;17.50;65.50
7970;DHT22;4030;52.362;9.206;2023-05-10T05:16:08;17.50;65.60
7970;DHT22;4030;52.362;9.206;2023-05-10T05:18:34;17.50;65.70
7970;DHT22;4030;52.362;9.206;2023-05-10T05:21:00;17.60;66.00
7970;DHT22;4030;52.362;9.206;2023-05-10T05:23:26;17.60;66.10
7970;DHT22;4030;52.362;9.206;2023-05-10T05:25:52;17.60;66.20
7970;DHT22;4030;52.362;9.206;2023-05-10T05:28:19;17.60;66.60
7970;DHT22;4030;52.362;9.206;2023-05-10T05:33:13;17.70;66.70
7970;DHT22;4030;52.362;9.206;2023-05-10T05:35:39;17.70;67.10
7970;DHT22;4030;52.362;9.206;2023-05-10T05:38:05;17.60;66.90
7970;DHT22;4030;52.362;9.206;2023-05-10T05:40:31;17.70;67.10
7970;DHT22;4030;52.362;9.206;2023-05-10T05:42:56;17.80;67.50
7970;DHT22;4030;52.362;9.206;2023-05-10T05:45:22;17.80;67.50
7970;DHT22;4030;52.362;9.206;2023-05-10T05:47:48;17.80;67.70
7970;DHT22;4030;52.362;9.206;2023-05-10T05:55:06;18.00;68.10
7970;DHT22;4030;52.362;9.206;2023-05-10T06:02:24;17.90;68.00
7970;DHT22;4030;52.362;9.206;2023-05-10T06:14:35;18.00;69.00
7970;DHT22;4030;52.362;9.206;2023-05-10T06:19:29;18.10;70.00
7970;DHT22;4030;52.362;9.206;2023-05-10T06:24:21;18.00;70.60
7970;DHT22;4030;52.362;9.206;2023-05-10T06:29:15;18.00;70.70
7970;DHT22;4030;52.362;9.206;2023-05-10T06:31:40;18.00;70.90
7970;DHT22;4030;52.362;9.206;2023-05-10T06:34:06;18.00;71.40
7970;DHT22;4030;52.362;9.206;2023-05-10T06:41:25;18.00;71.70
7970;DHT22;4030;52.362;9.206;2023-05-10T06:43:51;17.90;71.80
7970;DHT22;4030;52.362;9.206;2023-05-10T06:48:44;18.00;71.90
7970;DHT22;4030;52.362;9.206;2023-05-10T06:51:10;18.00;71.90
7970;DHT22;4030;52.362;9.206;2023-05-10T06:53:35;18.00;71.90
7970;DHT22;4030;52.362;9.206;2023-05-10T06:56:01;18.10;72.00
7970;DHT22;4030;52.362;9.206;2023-05-10T06:58:28;18.10;72.00
7970;DHT22;4030;52.362;9.206;2023-05-10T07:00:54;18.10;72.00
7970;DHT22;4030;52.362;9.206;2023-05-10T07:03:19;18.10;72.10
7970;DHT22;4030;52.362;9.206;2023-05-10T07:08:11;18.20;72.60
7970;DHT22;4030;52.362;9.206;2023-05-10T07:10:37;18.20;72.80
7970;DHT22;4030;52.362;9.206;2023-05-10T07:13:02;18.20;72.70
7970;DHT22;4030;52.362;9.206;2023-05-10T07:15:28;18.20;72.80
7970;DHT22;4030;52.362;9.206;2023-05-10T07:17:54;18.20;73.00
7970;DHT22;4030;52.362;9.206;2023-05-10T07:20:19;18.20;73.10
7970;DHT22;4030;52.362;9.206;2023-05-10T07:22:45;18.20;73.50
7970;DHT22;4030;52.362;9.206;2023-05-10T07:25:11;18.20;73.30
7970;DHT22;4030;52.362;9.206;2023-05-10T07:27:37;18.20;73.50
7970;DHT22;4030;52.362;9.206;2023-05-10T07:42:13;18.20;73.80
7970;DHT22;4030;52.362;9.206;2023-05-10T07:49:31;18.20;74.10
7970;DHT22;4030;52.362;9.206;2023-05-10T07:51:56;18.20;74.20
7970;DHT22;4030;52.362;9.206;2023-05-10T07:54:22;18.20;74.30
7970;DHT22;4030;52.362;9.206;2023-05-10T07:56:48;18.20;74.40
7970;DHT22;4030;52.362;9.206;2023-05-10T07:59:17;18.10;74.30
7970;DHT22;4030;52.362;9.206;2023-05-10T08:01:43;18.10;74.50
7970;DHT22;4030;52.362;9.206;2023-05-10T08:04:09;18.20;74.60
7970;DHT22;4030;52.362;9.206;2023-05-10T08:06:35;18.20;74.60
7970;DHT22;4030;52.362;9.206;2023-05-10T08:09:00;18.10;74.60
7970;DHT22;4030;52.362;9.206;2023-05-10T08:11:26;18.10;74.40
7970;DHT22;4030;52.362;9.206;2023-05-10T08:13:55;18.20;74.60
7970;DHT22;4030;52.362;9.206;2023-05-10T08:16:20;18.30;74.50
7970;DHT22;4030;52.362;9.206;2023-05-10T08:18:47;18.30;74.30
7970;DHT22;4030;52.362;9.206;2023-05-10T08:21:13;18.30;74.50
7970;DHT22;4030;52.362;9.206;2023-05-10T08:23:39;18.50;74.30
7970;DHT22;4030;52.362;9.206;2023-05-10T08:30:58;18.70;73.70
7970;DHT22;4030;52.362;9.206;2023-05-10T08:40:43;19.10;73.90
7970;DHT22;4030;52.362;9.206;2023-05-10T08:43:12;19.10;74.00
7970;DHT22;4030;52.362;9.206;2023-05-10T08:45:42;19.10;74.00
7970;DHT22;4030;52.362;9.206;2023-05-10T08:48:10;19.20;73.70
7970;DHT22;4030;52.362;9.206;2023-05-10T08:50:36;19.40;73.60
7970;DHT22;4030;52.362;9.206;2023-05-10T08:53:24;19.40;73.30
7970;DHT22;4030;52.362;9.206;2023-05-10T08:55:52;19.60;73.40
7970;DHT22;4030;52.362;9.206;2023-05-10T08:58:19;19.80;73.40
7970;DHT22;4030;52.362;9.206;2023-05-10T09:00:46;19.80;73.30
7970;DHT22;4030;52.362;9.206;2023-05-10T09:03:13;19.90;73.10
7970;DHT22;4030;52.362;9.206;2023-05-10T09:05:39;19.90;72.90
7970;DHT22;4030;52.362;9.206;2023-05-10T09:08:06;20.00;73.00
7970;DHT22;4030;52.362;9.206;2023-05-10T09:10:33;20.10;73.30
7970;DHT22;4030;52.362;9.206;2023-05-10T09:12:59;20.10;73.10
7970;DHT22;4030;52.362;9.206;2023-05-10T09:15:25;20.10;73.00
7970;DHT22;4030;52.362;9.206;2023-05-10T09:17:51;20.20;73.10
7970;DHT22;4030;52.362;9.206;2023-05-10T09:20:16;20.20;72.90
7970;DHT22;4030;52.362;9.206;2023-05-10T09:22:45;20.30;72.70
7970;DHT22;4030;52.362;9.206;2023-05-10T09:25:13;20.30;72.70
7970;DHT22;4030;52.362;9.206;2023-05-10T09:27:41;20.30;72.70
7970;DHT22;4030;52.362;9.206;2023-05-10T09:30:11;20.30;72.70
7970;DHT22;4030;52.362;9.206;2023-05-10T09:32:46;20.40;72.80
7970;DHT22;4030;52.362;9.206;2023-05-10T09:35:15;20.40;72.90
7970;DHT22;4030;52.362;9.206;2023-05-10T09:37:47;20.40;72.90
7970;DHT22;4030;52.362;9.206;2023-05-10T09:40:18;20.50;73.00
7970;DHT22;4030;52.362;9.206;2023-05-10T09:43:14;20.50;73.00
7970;DHT22;4030;52.362;9.206;2023-05-10T09:45:41;20.50;72.80
7970;DHT22;4030;52.362;9.206;2023-05-10T09:48:06;20.60;72.70
7970;DHT22;4030;52.362;9.206;2023-05-10T09:50:32;20.70;72.70
7970;DHT22;4030;52.362;9.206;2023-05-10T09:53:01;20.60;72.60
7970;DHT22;4030;52.362;9.206;2023-05-10T09:55:45;20.60;72.70
7970;DHT22;4030;52.362;9.206;2023-05-10T09:58:12;20.60;73.00
7970;DHT22;4030;52.362;9.206;2023-05-10T10:00:43;20.50;72.80
7970;DHT22;4030;52.362;9.206;2023-05-10T10:03:14;20.40;73.00
7970;DHT22;4030;52.362;9.206;2023-05-10T10:05:42;20.20;73.00
7970;DHT22;4030;52.362;9.206;2023-05-10T10:08:09;20.20;72.90
7970;DHT22;4030;52.362;9.206;2023-05-10T10:10:35;20.20;73.10
7970;DHT22;4030;52.362;9.206;2023-05-10T10:13:02;20.10;73.30
7970;DHT22;4030;52.362;9.206;2023-05-10T10:15:28;20.10;73.50
7970;DHT22;4030;52.362;9.206;2023-05-10T10:17:54;20.10;73.30
7970;DHT22;4030;52.362;9.206;2023-05-10T10:20:21;20.10;73.20
7970;DHT22;4030;52.362;9.206;2023-05-10T10:22:48;20.30;72.90
7970;DHT22;4030;52.362;9.206;2023-05-10T10:25:15;20.50;72.60
7970;DHT22;4030;52.362;9.206;2023-05-10T10:30:28;20.90;72.50
7970;DHT22;4030;52.362;9.206;2023-05-10T10:41:28;21.50;72.20
7970;DHT22;4030;52.362;9.206;2023-05-10T10:50:08;21.60;72.30
7970;DHT22;4030;52.362;9.206;2023-05-10T10:52:42;21.70;72.30
7970;DHT22;4030;52.362;9.206;2023-05-10T10:55:12;21.70;72.20
7970;DHT22;4030;52.362;9.206;2023-05-10T10:57:53;21.80;72.20
7970;DHT22;4030;52.362;9.206;2023-05-10T11:03:12;22.00;71.60
7970;DHT22;4030;52.362;9.206;2023-05-10T11:05:47;22.00;71.90
7970;DHT22;4030;52.362;9.206;2023-05-10T11:08:27;22.10;71.80
7970;DHT22;4030;52.362;9.206;2023-05-10T11:13:34;22.60;71.20
7970;DHT22;4030;52.362;9.206;2023-05-10T11:16:23;23.00;70.70
7970;DHT22;4030;52.362;9.206;2023-05-10T11:18:54;23.20;70.40
7970;DHT22;4030;52.362;9.206;2023-05-10T11:21:21;23.30;71.20
7970;DHT22;4030;52.362;9.206;2023-05-10T11:23:52;23.60;69.70
7970;DHT22;4030;52.362;9.206;2023-05-10T11:26:30;23.80;69.20
7970;DHT22;4030;52.362;9.206;2023-05-10T11:28:57;24.00;68.40
7970;DHT22;4030;52.362;9.206;2023-05-10T11:31:25;24.00;69.10
7970;DHT22;4030;52.362;9.206;2023-05-10T11:33:57;24.20;68.30
7970;DHT22;4030;52.362;9.206;2023-05-10T11:36:28;24.50;66.90
7970;DHT22;4030;52.362;9.206;2023-05-10T11:38:57;24.50;67.60
7970;DHT22;4030;52.362;9.206;2023-05-10T11:41:24;24.70;67.00
7970;DHT22;4030;52.362;9.206;2023-05-10T11:43:52;24.80;66.60
7970;DHT22;4030;52.362;9.206;2023-05-10T11:46:20;24.90;66.80
7970;DHT22;4030;52.362;9.206;2023-05-10T11:48:49;24.80;67.00
7970;DHT22;4030;52.362;9.206;2023-05-10T11:51:20;24.70;67.30
7970;DHT22;4030;52.362;9.206;2023-05-10T11:53:46;24.60;67.70
7970;DHT22;4030;52.362;9.206;2023-05-10T11:56:12;24.60;67.80
7970;DHT22;4030;52.362;9.206;2023-05-10T11:58:39;24.60;67.80
7970;DHT22;4030;52.362;9.206;2023-05-10T12:01:06;24.80;67.80
7970;DHT22;4030;52.362;9.206;2023-05-10T12:03:33;24.90;67.70
7970;DHT22;4030;52.362;9.206;2023-05-10T12:06:00;25.20;67.50
7970;DHT22;4030;52.362;9.206;2023-05-10T12:08:28;25.40;67.10
7970;DHT22;4030;52.362;9.206;2023-05-10T12:11:08;25.50;66.80
7970;DHT22;4030;52.362;9.206;2023-05-10T12:13:39;25.50;66.60
7970;DHT22;4030;52.362;9.206;2023-05-10T12:16:23;25.50;66.70
7970;DHT22;4030;52.362;9.206;2023-05-10T12:18:56;25.40;66.70
7970;DHT22;4030;52.362;9.206;2023-05-10T12:21:23;25.30;66.60
7970;DHT22;4030;52.362;9.206;2023-05-10T12:23:59;25.30;66.30
7970;DHT22;4030;52.362;9.206;2023-05-10T12:26:28;25.40;66.10
7970;DHT22;4030;52.362;9.206;2023-05-10T12:28:54;25.50;66.00
7970;DHT22;4030;52.362;9.206;2023-05-10T12:31:20;25.50;65.70
7970;DHT22;4030;52.362;9.206;2023-05-10T12:33:46;25.60;65.70
7970;DHT22;4030;52.362;9.206;2023-05-10T12:36:15;25.60;65.50
7970;DHT22;4030;52.362;9.206;2023-05-10T12:38:43;25.60;65.40
7970;DHT22;4030;52.362;9.206;2023-05-10T12:41:14;25.60;65.00
7970;DHT22;4030;52.362;9.206;2023-05-10T12:43:41;25.50;64.60
7970;DHT22;4030;52.362;9.206;2023-05-10T12:46:16;25.40;64.50
7970;DHT22;4030;52.362;9.206;2023-05-10T12:48:43;25.30;64.40
7970;DHT22;4030;52.362;9.206;2023-05-10T12:51:09;25.10;64.20
7970;DHT22;4030;52.362;9.206;2023-05-10T12:53:37;25.00;64.30
7970;DHT22;4030;52.362;9.206;2023-05-10T12:56:06;24.90;64.70
7970;DHT22;4030;52.362;9.206;2023-05-10T12:58:32;24.80;65.10
7970;DHT22;4030;52.362;9.206;2023-05-10T13:00:59;24.70;65.30
7970;DHT22;4030;52.362;9.206;2023-05-10T13:03:25;24.60;65.40
7970;DHT22;4030;52.362;9.206;2023-05-10T13:05:50;24.60;65.10
7970;DHT22;4030;52.362;9.206;2023-05-10T13:08:16;24.60;65.80
7970;DHT22;4030;52.362;9.206;2023-05-10T13:10:42;24.70;65.80
7970;DHT22;4030;52.362;9.206;2023-05-10T13:13:08;24.90;65.70
7970;DHT22;4030;52.362;9.206;2023-05-10T13:15:34;25.00;65.40
7970;DHT22;4030;52.362;9.206;2023-05-10T13:18:00;25.20;65.30
7970;DHT22;4030;52.362;9.206;2023-05-10T13:20:25;25.30;64.40
7970;DHT22;4030;52.362;9.206;2023-05-10T13:22:52;25.30;65.10
7970;DHT22;4030;52.362;9.206;2023-05-10T13:25:18;25.30;65.10
7970;DHT22;4030;52.362;9.206;2023-05-10T13:27:44;25.40;64.90
7970;DHT22;4030;52.362;9.206;2023-05-10T13:30:10;25.30;65.10
7970;DHT22;4030;52.362;9.206;2023-05-10T13:32:37;25.20;65.50
7970;DHT22;4030;52.362;9.206;2023-05-10T13:35:03;25.00;66.10
7970;DHT22;4030;52.362;9.206;2023-05-10T13:37:30;24.90;66.20
7970;DHT22;4030;52.362;9.206;2023-05-10T13:39:56;24.80;66.50
7970;DHT22;4030;52.362;9.206;2023-05-10T13:42:22;24.80;66.70
7970;DHT22;4030;52.362;9.206;2023-05-10T13:44:49;24.70;66.70
7970;DHT22;4030;52.362;9.206;2023-05-10T13:47:15;24.60;66.90
7970;DHT22;4030;52.362;9.206;2023-05-10T13:49:41;24.50;67.00
7970;DHT22;4030;52.362;9.206;2023-05-10T13:52:07;24.50;67.10
7970;DHT22;4030;52.362;9.206;2023-05-10T13:54:37;24.40;67.00
7970;DHT22;4030;52.362;9.206;2023-05-10T13:57:03;24.50;67.00
7970;DHT22;4030;52.362;9.206;2023-05-10T13:59:30;24.60;66.90
7970;DHT22;4030;52.362;9.206;2023-05-10T14:01:59;25.00;66.30
7970;DHT22;4030;52.362;9.206;2023-05-10T14:04:27;25.20;65.70
7970;DHT22;4030;52.362;9.206;2023-05-10T14:06:53;25.30;65.60
7970;DHT22;4030;52.362;9.206;2023-05-10T14:09:19;25.30;65.40
7970;DHT22;4030;52.362;9.206;2023-05-10T14:11:45;25.20;65.40
7970;DHT22;4030;52.362;9.206;2023-05-10T14:14:11;25.10;65.40
7970;DHT22;4030;52.362;9.206;2023-05-10T14:16:41;25.00;65.60
7970;DHT22;4030;52.362;9.206;2023-05-10T14:19:07;24.90;65.80
7970;DHT22;4030;52.362;9.206;2023-05-10T14:21:33;24.80;65.90
7970;DHT22;4030;52.362;9.206;2023-05-10T14:24:00;24.80;65.90
7970;DHT22;4030;52.362;9.206;2023-05-10T14:26:26;24.70;66.80
7970;DHT22;4030;52.362;9.206;2023-05-10T14:28:52;24.80;65.90
7970;DHT22;4030;52.362;9.206;2023-05-10T14:31:18;25.10;65.30
7970;DHT22;4030;52.362;9.206;2023-05-10T14:33:48;25.80;64.10
7970;DHT22;4030;52.362;9.206;2023-05-10T14:36:14;26.50;62.70
7970;DHT22;4030;52.362;9.206;2023-05-10T14:38:40;27.20;61.20
7970;DHT22;4030;52.362;9.206;2023-05-10T14:41:06;27.80;59.70
7970;DHT22;4030;52.362;9.206;2023-05-10T14:43:31;28.30;58.40
7970;DHT22;4030;52.362;9.206;2023-05-10T14:45:57;28.30;58.00
7970;DHT22;4030;52.362;9.206;2023-05-10T14:48:23;28.50;57.40
7970;DHT22;4030;52.362;9.206;2023-05-10T14:50:49;28.80;56.80
7970;DHT22;4030;52.362;9.206;2023-05-10T14:53:15;28.90;56.30
7970;DHT22;4030;52.362;9.206;2023-05-10T14:55:41;29.20;55.90
7970;DHT22;4030;52.362;9.206;2023-05-10T14:58:07;29.50;55.20
7970;DHT22;4030;52.362;9.206;2023-05-10T15:00:32;29.90;54.50
7970;DHT22;4030;52.362;9.206;2023-05-10T15:02:58;30.10;53.60
7970;DHT22;4030;52.362;9.206;2023-05-10T15:05:24;30.20;53.30
7970;DHT22;4030;52.362;9.206;2023-05-10T15:07:49;29.80;53.30
7970;DHT22;4030;52.362;9.206;2023-05-10T15:10:15;29.30;53.90
7970;DHT22;4030;52.362;9.206;2023-05-10T15:12:41;29.10;54.30
7970;DHT22;4030;52.362;9.206;2023-05-10T15:15:07;28.80;54.70
7970;DHT22;4030;52.362;9.206;2023-05-10T15:17:33;28.60;55.20
7970;DHT22;4030;52.362;9.206;2023-05-10T15:19:59;28.20;55.50
7970;DHT22;4030;52.362;9.206;2023-05-10T15:22:25;27.90;56.10
7970;DHT22;4030;52.362;9.206;2023-05-10T15:24:50;27.80;56.50
7970;DHT22;4030;52.362;9.206;2023-05-10T15:27:16;27.60;57.00
7970;DHT22;4030;52.362;9.206;2023-05-10T15:29:42;27.40;57.30
7970;DHT22;4030;52.362;9.206;2023-05-10T15:32:08;27.20;57.60
7970;DHT22;4030;52.362;9.206;2023-05-10T15:34:33;27.00;57.90
7970;DHT22;4030;52.362;9.206;2023-05-10T15:36:59;26.80;58.30
7970;DHT22;4030;52.362;9.206;2023-05-10T15:39:25;26.60;58.70
7970;DHT22;4030;52.362;9.206;2023-05-10T15:41:51;26.50;59.00
7970;DHT22;4030;52.362;9.206;2023-05-10T15:44:16;26.30;59.30
7970;DHT22;4030;52.362;9.206;2023-05-10T15:46:43;26.20;59.50
7970;DHT22;4030;52.362;9.206;2023-05-10T15:49:09;26.00;59.70
7970;DHT22;4030;52.362;9.206;2023-05-10T15:51:35;25.90;59.90
7970;DHT22;4030;52.362;9.206;2023-05-10T15:54:00;25.80;60.10
7970;DHT22;4030;52.362;9.206;2023-05-10T15:56:31;25.70;60.30
7970;DHT22;4030;52.362;9.206;2023-05-10T15:58:58;25.50;60.50
7970;DHT22;4030;52.362;9.206;2023-05-10T16:01:23;25.40;60.50
7970;DHT22;4030;52.362;9.206;2023-05-10T16:03:49;25.30;60.60
7970;DHT22;4030;52.362;9.206;2023-05-10T16:06:15;25.20;60.70
7970;DHT22;4030;52.362;9.206;2023-05-10T16:08:40;25.20;60.90
7970;DHT22;4030;52.362;9.206;2023-05-10T16:11:06;25.20;61.90
7970;DHT22;4030;52.362;9.206;2023-05-10T16:13:32;25.10;61.00
7970;DHT22;4030;52.362;9.206;2023-05-10T16:15:58;25.00;61.00
7970;DHT22;4030;52.362;9.206;2023-05-10T16:18:24;25.00;61.20
7970;DHT22;4030;52.362;9.206;2023-05-10T16:20:50;24.90;61.20
7970;DHT22;4030;52.362;9.206;2023-05-10T16:23:16;24.80;61.20
7970;DHT22;4030;52.362;9.206;2023-05-10T16:25:42;24.80;61.50
7970;DHT22;4030;52.362;9.206;2023-05-10T16:28:07;24.80;61.60
7970;DHT22;4030;52.362;9.206;2023-05-10T16:30:33;24.70;61.70
7970;DHT22;4030;52.362;9.206;2023-05-10T16:33:00;24.70;61.80
7970;DHT22;4030;52.362;9.206;2023-05-10T16:35:26;24.60;61.80
7970;DHT22;4030;52.362;9.206;2023-05-10T16:37:52;24.60;61.80
7970;DHT22;4030;52.362;9.206;2023-05-10T16:40:18;24.60;61.80
7970;DHT22;4030;52.362;9.206;2023-05-10T16:42:44;24.50;61.60
7970;DHT22;4030;52.362;9.206;2023-05-10T16:45:10;24.50;61.60
7970;DHT22;4030;52.362;9.206;2023-05-10T16:47:36;24.50;61.60
7970;DHT22;4030;52.362;9.206;2023-05-10T16:50:05;24.40;61.50
7970;DHT22;4030;52.362;9.206;2023-05-10T16:52:35;24.40;61.60
7970;DHT22;4030;52.362;9.206;2023-05-10T16:55:01;24.40;61.70
7970;DHT22;4030;52.362;9.206;2023-05-10T16:57:28;24.30;61.70
7970;DHT22;4030;52.362;9.206;2023-05-10T16:59:54;24.30;61.80
7970;DHT22;4030;52.362;9.206;2023-05-10T17:02:21;24.20;61.90
7970;DHT22;4030;52.362;9.206;2023-05-10T17:04:47;24.20;62.10
7970;DHT22;4030;52.362;9.206;2023-05-10T17:07:13;24.10;62.20
7970;DHT22;4030;52.362;9.206;2023-05-10T17:09:40;24.00;62.40
7970;DHT22;4030;52.362;9.206;2023-05-10T17:12:06;23.90;62.40
7970;DHT22;4030;52.362;9.206;2023-05-10T17:14:32;23.90;62.50
7970;DHT22;4030;52.362;9.206;2023-05-10T17:16:58;23.80;62.60
7970;DHT22;4030;52.362;9.206;2023-05-10T17:19:24;23.70;62.80
7970;DHT22;4030;52.362;9.206;2023-05-10T17:21:50;23.70;63.00
7970;DHT22;4030;52.362;9.206;2023-05-10T17:24:15;23.60;63.10
7970;DHT22;4030;52.362;9.206;2023-05-10T17:26:41;23.50;62.60
7970;DHT22;4030;52.362;9.206;2023-05-10T17:29:07;23.50;63.40
7970;DHT22;4030;52.362;9.206;2023-05-10T17:31:32;23.40;63.50
7970;DHT22;4030;52.362;9.206;2023-05-10T17:33:58;23.30;63.70
7970;DHT22;4030;52.362;9.206;2023-05-10T17:36:24;23.30;64.00
7970;DHT22;4030;52.362;9.206;2023-05-10T17:38:50;23.20;64.20
7970;DHT22;4030;52.362;9.206;2023-05-10T17:41:16;23.10;64.30
7970;DHT22;4030;52.362;9.206;2023-05-10T17:43:42;23.10;64.50
7970;DHT22;4030;52.362;9.206;2023-05-10T17:46:08;23.10;64.70
7970;DHT22;4030;52.362;9.206;2023-05-10T17:48:34;23.00;64.80
7970;DHT22;4030;52.362;9.206;2023-05-10T17:51:04;23.00;66.00
7970;DHT22;4030;52.362;9.206;2023-05-10T17:53:30;22.90;65.10
7970;DHT22;4030;52.362;9.206;2023-05-10T17:55:56;22.80;65.30
7970;DHT22;4030;52.362;9.206;2023-05-10T17:58:23;22.80;65.40
7970;DHT22;4030;52.362;9.206;2023-05-10T18:00:51;22.70;65.60